sensor_id;sensor_type;location;lat;lon;timestamp;P1;durP1;ratioP1;P2;durP2;ratioP2
37495;SDS011;23346;52.088;4.746;2022-08-04T00:08:11;11.23;;;4.05;;
37495;SDS011;23346;52.088;4.746;2022-08-04T00:10:39;13.02;;;4.32;;
37495;SDS011;23346;52.088;4.746;2022-08-04T00:13:09;6.43;;;4.10;;
37495;SDS011;23346;52.088;4.746;2022-08-04T00:15:35;15.50;;;4.43;;
37495;SDS011;23346;52.088;4.746;2022-08-04T00:18:02;10.02;;;4.47;;
37495;SDS011;23346;52.088;4.746;2022-08-04T00:20:31;8.40;;;4.22;;
37495;SDS011;23346;52.088;4.746;2022-08-04T00:22:58;16.02;;;5.05;;
37495;SDS011;23346;52.088;4.746;2022-08-04T00:25:25;9.60;;;3.78;;
37495;SDS011;23346;52.088;4.746;2022-08-04T00:27:52;6.82;;;4.70;;
37495;SDS011;23346;52.088;4.746;2022-08-04T00:30:18;8.00;;;4.40;;
37495;SDS011;23346;52.088;4.746;2022-08-04T00:32:44;9.25;;;4.55;;
37495;SDS011;23346;52.088;4.746;2022-08-04T00:35:14;8.15;;;4.47;;
37495;SDS011;23346;52.088;4.746;2022-08-04T00:37:42;10.68;;;4.75;;
37495;SDS011;23346;52.088;4.746;2022-08-04T00:40:31;8.63;;;4.78;;
37495;SDS011;23346;52.088;4.746;2022-08-04T00:48:31;10.30;;;5.25;;
37495;SDS011;23346;52.088;4.746;2022-08-04T00:51:10;8.63;;;4.65;;
37495;SDS011;23346;52.088;4.746;2022-08-04T00:59:25;8.55;;;4.25;;
37495;SDS011;23346;52.088;4.746;2022-08-04T01:02:03;9.32;;;4.13;;
37495;SDS011;23346;52.088;4.746;2022-08-04T01:07:09;7.97;;;4.05;;
37495;SDS011;23346;52.088;4.746;2022-08-04T01:09:44;7.35;;;4.07;;
37495;SDS011;23346;52.088;4.746;2022-08-04T01:15:03;6.63;;;4.07;;
37495;SDS011;23346;52.088;4.746;2022-08-04T01:20:06;8.13;;;4.20;;
37495;SDS011;23346;52.088;4.746;2022-08-04T01:29:59;7.90;;;4.15;;
37495;SDS011;23346;52.088;4.746;2022-08-04T01:32:40;9.48;;;4.65;;
37495;SDS011;23346;52.088;4.746;2022-08-04T01:35:10;9.15;;;4.38;;
37495;SDS011;23346;52.088;4.746;2022-08-04T01:40:05;13.02;;;3.20;;
37495;SDS011;23346;52.088;4.746;2022-08-04T01:42:32;9.40;;;4.00;;
37495;SDS011;23346;52.088;4.746;2022-08-04T01:45:02;7.22;;;3.10;;
37495;SDS011;23346;52.088;4.746;2022-08-04T01:47:29;8.68;;;3.92;;
37495;SDS011;23346;52.088;4.746;2022-08-04T01:49:59;6.60;;;3.42;;
37495;SDS011;23346;52.088;4.746;2022-08-04T01:52:26;6.22;;;3.67;;
37495;SDS011;23346;52.088;4.746;2022-08-04T01:54:53;5.18;;;3.50;;
37495;SDS011;23346;52.088;4.746;2022-08-04T01:57:20;4.38;;;3.55;;
37495;SDS011;23346;52.088;4.746;2022-08-04T01:59:48;7.85;;;3.45;;
37495;SDS011;23346;52.088;4.746;2022-08-04T02:02:16;16.15;;;4.85;;
37495;SDS011;23346;52.088;4.746;2022-08-04T02:04:42;7.45;;;4.72;;
37495;SDS011;23346;52.088;4.746;2022-08-04T02:07:20;15.57;;;6.22;;
37495;SDS011;23346;52.088;4.746;2022-08-04T02:10:10;14.07;;;5.88;;
37495;SDS011;23346;52.088;4.746;2022-08-04T02:13:01;13.35;;;6.10;;
37495;SDS011;23346;52.088;4.746;2022-08-04T02:15:29;8.90;;;5.13;;
37495;SDS011;23346;52.088;4.746;2022-08-04T02:18:01;14.70;;;6.38;;
37495;SDS011;23346;52.088;4.746;2022-08-04T02:20:29;10.38;;;5.72;;
37495;SDS011;23346;52.088;4.746;2022-08-04T02:22:59;9.10;;;5.47;;
37495;SDS011;23346;52.088;4.746;2022-08-04T02:25:26;14.43;;;6.32;;
37495;SDS011;23346;52.088;4.746;2022-08-04T02:30:27;12.80;;;6.35;;
37495;SDS011;23346;52.088;4.746;2022-08-04T02:32:57;12.60;;;6.38;;
37495;SDS011;23346;52.088;4.746;2022-08-04T02:35:25;13.68;;;7.10;;
37495;SDS011;23346;52.088;4.746;2022-08-04T02:37:59;11.35;;;6.65;;
37495;SDS011;23346;52.088;4.746;2022-08-04T02:40:25;10.35;;;6.45;;
37495;SDS011;23346;52.088;4.746;2022-08-04T02:42:54;11.57;;;6.25;;
37495;SDS011;23346;52.088;4.746;2022-08-04T02:45:22;10.73;;;6.25;;
37495;SDS011;23346;52.088;4.746;2022-08-04T02:47:50;12.38;;;6.40;;
37495;SDS011;23346;52.088;4.746;2022-08-04T02:50:18;11.73;;;6.53;;
37495;SDS011;23346;52.088;4.746;2022-08-04T02:52:45;13.65;;;6.53;;
37495;SDS011;23346;52.088;4.746;2022-08-04T02:55:12;15.20;;;6.78;;
37495;SDS011;23346;52.088;4.746;2022-08-04T02:57:38;15.10;;;6.13;;
37495;SDS011;23346;52.088;4.746;2022-08-04T03:02:53;9.55;;;5.15;;
37495;SDS011;23346;52.088;4.746;2022-08-04T03:13:27;10.25;;;5.43;;
37495;SDS011;23346;52.088;4.746;2022-08-04T03:24:31;10.80;;;6.20;;
37495;SDS011;23346;52.088;4.746;2022-08-04T03:38:44;14.60;;;6.43;;
37495;SDS011;23346;52.088;4.746;2022-08-04T03:44:11;9.27;;;5.97;;
37495;SDS011;23346;52.088;4.746;2022-08-04T03:49:27;12.18;;;6.40;;
37495;SDS011;23346;52.088;4.746;2022-08-04T03:52:04;12.93;;;6.55;;
37495;SDS011;23346;52.088;4.746;2022-08-04T04:00:03;13.02;;;7.07;;
37495;SDS011;23346;52.088;4.746;2022-08-04T04:05:11;10.57;;;6.75;;
37495;SDS011;23346;52.088;4.746;2022-08-04T04:19:00;13.38;;;7.13;;
37495;SDS011;23346;52.088;4.746;2022-08-04T04:21:56;14.48;;;7.45;;
37495;SDS011;23346;52.088;4.746;2022-08-04T04:24:35;12.70;;;6.50;;
37495;SDS011;23346;52.088;4.746;2022-08-04T04:32:20;12.40;;;5.28;;
37495;SDS011;23346;52.088;4.746;2022-08-04T04:42:48;15.20;;;5.57;;
37495;SDS011;23346;52.088;4.746;2022-08-04T04:45:21;8.90;;;5.00;;
37495;SDS011;23346;52.088;4.746;2022-08-04T04:47:57;12.65;;;6.45;;
37495;SDS011;23346;52.088;4.746;2022-08-04T04:53:11;8.27;;;4.25;;
37495;SDS011;23346;52.088;4.746;2022-08-04T04:55:44;8.57;;;4.53;;
37495;SDS011;23346;52.088;4.746;2022-08-04T04:58:12;11.45;;;4.50;;
37495;SDS011;23346;52.088;4.746;2022-08-04T05:03:20;12.75;;;4.60;;
37495;SDS011;23346;52.088;4.746;2022-08-04T05:11:30;8.98;;;3.05;;
37495;SDS011;23346;52.088;4.746;2022-08-04T05:14:01;4.70;;;3.03;;
37495;SDS011;23346;52.088;4.746;2022-08-04T05:16:34;11.07;;;4.13;;
37495;SDS011;23346;52.088;4.746;2022-08-04T05:21:47;9.07;;;3.72;;
37495;SDS011;23346;52.088;4.746;2022-08-04T05:24:20;8.32;;;3.58;;
37495;SDS011;23346;52.088;4.746;2022-08-04T05:26:51;5.47;;;3.20;;
37495;SDS011;23346;52.088;4.746;2022-08-04T05:29:32;7.15;;;2.53;;
37495;SDS011;23346;52.088;4.746;2022-08-04T05:32:00;7.60;;;2.90;;
37495;SDS011;23346;52.088;4.746;2022-08-04T05:34:28;11.00;;;3.22;;
37495;SDS011;23346;52.088;4.746;2022-08-04T05:36:59;11.02;;;3.50;;
37495;SDS011;23346;52.088;4.746;2022-08-04T05:39:27;9.07;;;3.38;;
37495;SDS011;23346;52.088;4.746;2022-08-04T05:41:53;9.57;;;3.20;;
37495;SDS011;23346;52.088;4.746;2022-08-04T05:44:20;8.48;;;2.97;;
37495;SDS011;23346;52.088;4.746;2022-08-04T05:46:47;8.10;;;3.25;;
37495;SDS011;23346;52.088;4.746;2022-08-04T05:49:14;6.53;;;2.88;;
37495;SDS011;23346;52.088;4.746;2022-08-04T05:51:41;8.82;;;3.00;;
37495;SDS011;23346;52.088;4.746;2022-08-04T05:54:08;9.40;;;3.15;;
37495;SDS011;23346;52.088;4.746;2022-08-04T05:56:34;6.25;;;3.10;;
37495;SDS011;23346;52.088;4.746;2022-08-04T05:59:02;10.48;;;3.15;;
37495;SDS011;23346;52.088;4.746;2022-08-04T06:01:28;10.27;;;3.22;;
37495;SDS011;23346;52.088;4.746;2022-08-04T06:03:59;10.90;;;3.42;;
37495;SDS011;23346;52.088;4.746;2022-08-04T06:06:25;7.55;;;3.80;;
37495;SDS011;23346;52.088;4.746;2022-08-04T06:08:51;12.30;;;3.88;;
37495;SDS011;23346;52.088;4.746;2022-08-04T06:11:17;10.45;;;3.40;;
37495;SDS011;23346;52.088;4.746;2022-08-04T06:13:47;11.32;;;4.20;;
37495;SDS011;23346;52.088;4.746;2022-08-04T06:16:15;8.77;;;3.35;;
37495;SDS011;23346;52.088;4.746;2022-08-04T06:18:43;14.00;;;3.25;;
37495;SDS011;23346;52.088;4.746;2022-08-04T06:21:10;14.05;;;3.40;;
37495;SDS011;23346;52.088;4.746;2022-08-04T06:23:37;22.50;;;3.80;;
37495;SDS011;23346;52.088;4.746;2022-08-04T06:26:04;10.98;;;3.40;;
37495;SDS011;23346;52.088;4.746;2022-08-04T06:28:31;7.20;;;3.25;;
37495;SDS011;23346;52.088;4.746;2022-08-04T06:30:58;7.72;;;3.25;;
37495;SDS011;23346;52.088;4.746;2022-08-04T06:33:28;7.38;;;3.45;;
37495;SDS011;23346;52.088;4.746;2022-08-04T06:35:59;11.20;;;3.45;;
37495;SDS011;23346;52.088;4.746;2022-08-04T06:38:26;7.72;;;3.25;;
37495;SDS011;23346;52.088;4.746;2022-08-04T06:40:53;8.43;;;3.97;;
37495;SDS011;23346;52.088;4.746;2022-08-04T06:43:21;8.63;;;3.03;;
37495;SDS011;23346;52.088;4.746;2022-08-04T06:45:48;7.18;;;3.20;;
37495;SDS011;23346;52.088;4.746;2022-08-04T06:48:14;7.97;;;3.63;;
37495;SDS011;23346;52.088;4.746;2022-08-04T06:50:42;12.75;;;3.42;;
37495;SDS011;23346;52.088;4.746;2022-08-04T06:53:09;9.75;;;3.30;;
37495;SDS011;23346;52.088;4.746;2022-08-04T06:55:35;8.68;;;3.17;;
37495;SDS011;23346;52.088;4.746;2022-08-04T06:58:01;11.10;;;2.97;;
37495;SDS011;23346;52.088;4.746;2022-08-04T07:00:28;7.80;;;2.58;;
37495;SDS011;23346;52.088;4.746;2022-08-04T07:02:54;12.13;;;2.42;;
37495;SDS011;23346;52.088;4.746;2022-08-04T07:05:21;5.60;;;2.20;;
37495;SDS011;23346;52.088;4.746;2022-08-04T07:07:47;7.35;;;1.65;;
37495;SDS011;23346;52.088;4.746;2022-08-04T07:10:14;9.43;;;1.63;;
37495;SDS011;23346;52.088;4.746;2022-08-04T07:12:40;7.93;;;1.73;;
37495;SDS011;23346;52.088;4.746;2022-08-04T07:15:07;6.60;;;1.60;;
37495;SDS011;23346;52.088;4.746;2022-08-04T07:17:34;5.72;;;1.63;;
37495;SDS011;23346;52.088;4.746;2022-08-04T07:20:01;7.75;;;1.70;;
37495;SDS011;23346;52.088;4.746;2022-08-04T07:22:27;4.53;;;1.63;;
37495;SDS011;23346;52.088;4.746;2022-08-04T07:24:54;7.85;;;1.67;;
37495;SDS011;23346;52.088;4.746;2022-08-04T07:27:21;5.90;;;1.50;;
37495;SDS011;23346;52.088;4.746;2022-08-04T07:29:47;4.22;;;1.55;;
37495;SDS011;23346;52.088;4.746;2022-08-04T07:32:13;7.97;;;2.00;;
37495;SDS011;23346;52.088;4.746;2022-08-04T07:34:41;5.45;;;1.58;;
37495;SDS011;23346;52.088;4.746;2022-08-04T07:37:07;4.57;;;1.60;;
37495;SDS011;23346;52.088;4.746;2022-08-04T07:39:34;5.50;;;1.73;;
37495;SDS011;23346;52.088;4.746;2022-08-04T07:42:00;6.80;;;1.60;;
37495;SDS011;23346;52.088;4.746;2022-08-04T07:44:28;7.78;;;1.80;;
37495;SDS011;23346;52.088;4.746;2022-08-04T07:46:54;4.82;;;1.45;;
37495;SDS011;23346;52.088;4.746;2022-08-04T07:49:20;4.70;;;1.45;;
37495;SDS011;23346;52.088;4.746;2022-08-04T07:51:46;5.93;;;1.50;;
37495;SDS011;23346;52.088;4.746;2022-08-04T07:54:12;5.82;;;1.25;;
37495;SDS011;23346;52.088;4.746;2022-08-04T07:56:39;5.40;;;1.35;;
37495;SDS011;23346;52.088;4.746;2022-08-04T07:59:06;5.45;;;1.23;;
37495;SDS011;23346;52.088;4.746;2022-08-04T08:01:35;5.60;;;1.30;;
37495;SDS011;23346;52.088;4.746;2022-08-04T08:04:02;5.05;;;1.17;;
37495;SDS011;23346;52.088;4.746;2022-08-04T08:06:30;3.92;;;1.20;;
37495;SDS011;23346;52.088;4.746;2022-08-04T08:08:56;5.57;;;1.17;;
37495;SDS011;23346;52.088;4.746;2022-08-04T08:11:24;4.07;;;1.20;;
37495;SDS011;23346;52.088;4.746;2022-08-04T08:13:50;7.03;;;1.40;;
37495;SDS011;23346;52.088;4.746;2022-08-04T08:16:17;4.55;;;1.48;;
37495;SDS011;23346;52.088;4.746;2022-08-04T08:18:45;5.03;;;1.63;;
37495;SDS011;23346;52.088;4.746;2022-08-04T08:21:11;6.57;;;1.52;;
37495;SDS011;23346;52.088;4.746;2022-08-04T08:23:37;3.28;;;1.48;;
37495;SDS011;23346;52.088;4.746;2022-08-04T08:26:04;3.45;;;1.20;;
37495;SDS011;23346;52.088;4.746;2022-08-04T08:28:30;6.03;;;1.00;;
37495;SDS011;23346;52.088;4.746;2022-08-04T08:30:56;3.22;;;1.00;;
37495;SDS011;23346;52.088;4.746;2022-08-04T08:33:22;4.50;;;1.27;;
37495;SDS011;23346;52.088;4.746;2022-08-04T08:35:51;8.25;;;1.30;;
37495;SDS011;23346;52.088;4.746;2022-08-04T08:38:18;6.25;;;1.40;;
37495;SDS011;23346;52.088;4.746;2022-08-04T08:56:51;5.03;;;1.15;;
37495;SDS011;23346;52.088;4.746;2022-08-04T08:59:25;4.47;;;1.13;;
37495;SDS011;23346;52.088;4.746;2022-08-04T09:07:17;4.38;;;1.02;;
37495;SDS011;23346;52.088;4.746;2022-08-04T09:10:02;3.97;;;0.95;;
37495;SDS011;23346;52.088;4.746;2022-08-04T09:12:30;2.30;;;0.70;;
37495;SDS011;23346;52.088;4.746;2022-08-04T09:17:39;4.28;;;1.00;;
37495;SDS011;23346;52.088;4.746;2022-08-04T09:20:07;2.03;;;1.00;;
37495;SDS011;23346;52.088;4.746;2022-08-04T09:22:38;3.80;;;0.93;;
37495;SDS011;23346;52.088;4.746;2022-08-04T09:26:08;3.53;;;0.98;;
37495;SDS011;23346;52.088;4.746;2022-08-04T09:28:03;2.95;;;0.77;;
37495;SDS011;23346;52.088;4.746;2022-08-04T09:36:00;4.40;;;0.93;;
37495;SDS011;23346;52.088;4.746;2022-08-04T09:40:58;4.60;;;0.90;;
37495;SDS011;23346;52.088;4.746;2022-08-04T09:46:04;4.20;;;0.90;;
37495;SDS011;23346;52.088;4.746;2022-08-04T09:48:34;3.15;;;1.00;;
37495;SDS011;23346;52.088;4.746;2022-08-04T09:51:03;3.05;;;0.85;;
37495;SDS011;23346;52.088;4.746;2022-08-04T09:53:45;2.75;;;0.70;;
37495;SDS011;23346;52.088;4.746;2022-08-04T09:56:25;4.47;;;0.90;;
37495;SDS011;23346;52.088;4.746;2022-08-04T10:01:37;3.10;;;0.80;;
37495;SDS011;23346;52.088;4.746;2022-08-04T10:04:05;2.13;;;0.75;;
37495;SDS011;23346;52.088;4.746;2022-08-04T10:09:32;2.45;;;0.70;;
37495;SDS011;23346;52.088;4.746;2022-08-04T10:12:04;3.80;;;0.80;;
37495;SDS011;23346;52.088;4.746;2022-08-04T10:19:27;4.00;;;0.63;;
37495;SDS011;23346;52.088;4.746;2022-08-04T10:27:15;2.22;;;0.77;;
37495;SDS011;23346;52.088;4.746;2022-08-04T10:29:45;2.30;;;0.70;;
37495;SDS011;23346;52.088;4.746;2022-08-04T10:32:16;3.65;;;0.80;;
37495;SDS011;23346;52.088;4.746;2022-08-04T10:34:46;2.10;;;0.70;;
37495;SDS011;23346;52.088;4.746;2022-08-04T10:39:40;2.45;;;0.88;;
37495;SDS011;23346;52.088;4.746;2022-08-04T10:42:27;3.15;;;0.85;;
37495;SDS011;23346;52.088;4.746;2022-08-04T10:47:44;1.02;;;0.50;;
37495;SDS011;23346;52.088;4.746;2022-08-04T10:50:11;5.47;;;0.80;;
37495;SDS011;23346;52.088;4.746;2022-08-04T10:55:24;3.42;;;0.80;;
37495;SDS011;23346;52.088;4.746;2022-08-04T10:57:58;4.82;;;0.80;;
37495;SDS011;23346;52.088;4.746;2022-08-04T11:00:26;1.95;;;0.65;;
37495;SDS011;23346;52.088;4.746;2022-08-04T11:08:08;2.38;;;0.65;;
37495;SDS011;23346;52.088;4.746;2022-08-04T11:10:44;2.80;;;0.93;;
37495;SDS011;23346;52.088;4.746;2022-08-04T11:13:13;4.53;;;0.80;;
37495;SDS011;23346;52.088;4.746;2022-08-04T11:15:41;3.95;;;1.10;;
37495;SDS011;23346;52.088;4.746;2022-08-04T11:18:12;2.83;;;0.90;;
37495;SDS011;23346;52.088;4.746;2022-08-04T11:20:54;3.08;;;0.82;;
37495;SDS011;23346;52.088;4.746;2022-08-04T11:23:22;2.40;;;0.82;;
37495;SDS011;23346;52.088;4.746;2022-08-04T11:28:36;2.85;;;0.88;;
37495;SDS011;23346;52.088;4.746;2022-08-04T11:33:38;2.63;;;0.70;;
37495;SDS011;23346;52.088;4.746;2022-08-04T11:36:19;3.13;;;0.85;;
37495;SDS011;23346;52.088;4.746;2022-08-04T11:39:02;2.97;;;0.75;;
37495;SDS011;23346;52.088;4.746;2022-08-04T11:41:36;3.60;;;0.75;;
37495;SDS011;23346;52.088;4.746;2022-08-04T11:44:03;1.75;;;0.80;;
37495;SDS011;23346;52.088;4.746;2022-08-04T11:46:34;2.25;;;0.73;;
37495;SDS011;23346;52.088;4.746;2022-08-04T11:49:04;1.73;;;0.57;;
37495;SDS011;23346;52.088;4.746;2022-08-04T11:51:31;1.10;;;0.50;;
37495;SDS011;23346;52.088;4.746;2022-08-04T11:53:59;4.00;;;0.60;;
37495;SDS011;23346;52.088;4.746;2022-08-04T11:56:26;3.50;;;0.73;;
37495;SDS011;23346;52.088;4.746;2022-08-04T11:58:52;4.25;;;0.90;;
37495;SDS011;23346;52.088;4.746;2022-08-04T12:03:53;3.63;;;0.80;;
37495;SDS011;23346;52.088;4.746;2022-08-04T12:06:44;2.35;;;0.80;;
37495;SDS011;23346;52.088;4.746;2022-08-04T12:11:53;1.70;;;0.70;;
37495;SDS011;23346;52.088;4.746;2022-08-04T12:15:22;1.83;;;0.50;;
37495;SDS011;23346;52.088;4.746;2022-08-04T12:17:20;3.58;;;0.60;;
37495;SDS011;23346;52.088;4.746;2022-08-04T12:19:50;0.85;;;0.60;;
37495;SDS011;23346;52.088;4.746;2022-08-04T12:22:21;2.05;;;0.80;;
37495;SDS011;23346;52.088;4.746;2022-08-04T12:27:26;3.20;;;0.68;;
37495;SDS011;23346;52.088;4.746;2022-08-04T12:29:54;2.80;;;0.70;;
37495;SDS011;23346;52.088;4.746;2022-08-04T12:32:37;4.35;;;0.60;;
37495;SDS011;23346;52.088;4.746;2022-08-04T12:35:19;3.40;;;0.60;;
37495;SDS011;23346;52.088;4.746;2022-08-04T12:40:16;2.72;;;0.73;;
37495;SDS011;23346;52.088;4.746;2022-08-04T12:45:15;3.03;;;0.70;;
37495;SDS011;23346;52.088;4.746;2022-08-04T12:47:42;5.90;;;0.80;;
37495;SDS011;23346;52.088;4.746;2022-08-04T12:50:09;2.05;;;0.57;;
37495;SDS011;23346;52.088;4.746;2022-08-04T12:52:42;2.15;;;0.70;;
37495;SDS011;23346;52.088;4.746;2022-08-04T12:55:09;4.45;;;0.80;;
37495;SDS011;23346;52.088;4.746;2022-08-04T12:57:36;2.97;;;0.73;;
37495;SDS011;23346;52.088;4.746;2022-08-04T13:00:03;2.22;;;0.90;;
37495;SDS011;23346;52.088;4.746;2022-08-04T13:02:32;1.20;;;0.57;;
37495;SDS011;23346;52.088;4.746;2022-08-04T13:05:01;1.48;;;0.60;;
37495;SDS011;23346;52.088;4.746;2022-08-04T13:07:33;3.45;;;1.15;;
37495;SDS011;23346;52.088;4.746;2022-08-04T13:10:02;2.33;;;0.70;;
37495;SDS011;23346;52.088;4.746;2022-08-04T13:12:30;2.25;;;0.80;;
37495;SDS011;23346;52.088;4.746;2022-08-04T13:14:58;3.33;;;0.82;;
37495;SDS011;23346;52.088;4.746;2022-08-04T13:17:25;3.05;;;0.82;;
37495;SDS011;23346;52.088;4.746;2022-08-04T13:20:06;1.80;;;0.70;;
37495;SDS011;23346;52.088;4.746;2022-08-04T13:22:32;1.92;;;0.77;;
37495;SDS011;23346;52.088;4.746;2022-08-04T13:24:58;2.05;;;0.77;;
37495;SDS011;23346;52.088;4.746;2022-08-04T13:27:25;1.92;;;0.65;;
37495;SDS011;23346;52.088;4.746;2022-08-04T13:29:53;2.85;;;0.55;;
37495;SDS011;23346;52.088;4.746;2022-08-04T13:32:20;3.65;;;0.80;;
37495;SDS011;23346;52.088;4.746;2022-08-04T13:34:47;3.80;;;0.70;;
37495;SDS011;23346;52.088;4.746;2022-08-04T13:37:14;2.83;;;0.80;;
37495;SDS011;23346;52.088;4.746;2022-08-04T13:39:44;3.20;;;0.80;;
37495;SDS011;23346;52.088;4.746;2022-08-04T13:42:11;3.10;;;0.77;;
37495;SDS011;23346;52.088;4.746;2022-08-04T13:44:37;3.75;;;0.70;;
37495;SDS011;23346;52.088;4.746;2022-08-04T13:47:08;3.67;;;1.00;;
37495;SDS011;23346;52.088;4.746;2022-08-04T13:49:34;1.55;;;0.80;;
37495;SDS011;23346;52.088;4.746;2022-08-04T13:52:03;4.95;;;1.02;;
37495;SDS011;23346;52.088;4.746;2022-08-04T13:57:05;3.25;;;0.80;;
37495;SDS011;23346;52.088;4.746;2022-08-04T13:59:34;3.22;;;1.02;;
37495;SDS011;23346;52.088;4.746;2022-08-04T14:02:05;4.15;;;1.40;;
37495;SDS011;23346;52.088;4.746;2022-08-04T14:04:33;2.95;;;0.88;;
37495;SDS011;23346;52.088;4.746;2022-08-04T14:09:26;2.50;;;0.80;;
37495;SDS011;23346;52.088;4.746;2022-08-04T14:11:53;2.90;;;0.70;;
37495;SDS011;23346;52.088;4.746;2022-08-04T14:14:26;5.05;;;0.90;;
37495;SDS011;23346;52.088;4.746;2022-08-04T14:16:57;5.30;;;0.93;;
37495;SDS011;23346;52.088;4.746;2022-08-04T14:19:24;3.60;;;0.80;;
37495;SDS011;23346;52.088;4.746;2022-08-04T14:21:50;2.88;;;1.30;;
37495;SDS011;23346;52.088;4.746;2022-08-04T14:24:23;2.83;;;0.90;;
37495;SDS011;23346;52.088;4.746;2022-08-04T14:26:49;4.38;;;0.90;;
37495;SDS011;23346;52.088;4.746;2022-08-04T14:29:16;3.58;;;0.73;;
37495;SDS011;23346;52.088;4.746;2022-08-04T14:31:47;3.72;;;0.88;;
37495;SDS011;23346;52.088;4.746;2022-08-04T14:34:26;2.83;;;0.80;;
37495;SDS011;23346;52.088;4.746;2022-08-04T14:36:52;4.00;;;0.95;;
37495;SDS011;23346;52.088;4.746;2022-08-04T14:39:34;6.00;;;0.98;;
37495;SDS011;23346;52.088;4.746;2022-08-04T14:42:00;3.42;;;0.77;;
37495;SDS011;23346;52.088;4.746;2022-08-04T14:44:26;1.60;;;0.60;;
37495;SDS011;23346;52.088;4.746;2022-08-04T14:46:53;3.33;;;0.77;;
37495;SDS011;23346;52.088;4.746;2022-08-04T14:49:20;4.32;;;0.90;;
37495;SDS011;23346;52.088;4.746;2022-08-04T14:51:56;4.50;;;1.58;;
37495;SDS011;23346;52.088;4.746;2022-08-04T14:56:54;3.20;;;0.73;;
37495;SDS011;23346;52.088;4.746;2022-08-04T14:59:21;6.97;;;1.17;;
37495;SDS011;23346;52.088;4.746;2022-08-04T15:01:49;3.80;;;0.85;;
37495;SDS011;23346;52.088;4.746;2022-08-04T15:04:15;3.20;;;0.73;;
37495;SDS011;23346;52.088;4.746;2022-08-04T15:06:42;7.53;;;0.73;;
37495;SDS011;23346;52.088;4.746;2022-08-04T15:09:09;3.50;;;0.73;;
37495;SDS011;23346;52.088;4.746;2022-08-04T15:11:35;3.05;;;0.73;;
37495;SDS011;23346;52.088;4.746;2022-08-04T15:14:02;2.40;;;0.80;;
37495;SDS011;23346;52.088;4.746;2022-08-04T15:16:29;4.00;;;1.00;;
37495;SDS011;23346;52.088;4.746;2022-08-04T15:18:55;4.75;;;0.90;;
37495;SDS011;23346;52.088;4.746;2022-08-04T15:21:22;10.70;;;1.05;;
37495;SDS011;23346;52.088;4.746;2022-08-04T15:23:49;3.45;;;0.90;;
37495;SDS011;23346;52.088;4.746;2022-08-04T15:28:59;4.65;;;0.80;;
37495;SDS011;23346;52.088;4.746;2022-08-04T15:31:27;4.10;;;0.75;;
37495;SDS011;23346;52.088;4.746;2022-08-04T15:33:56;4.05;;;1.02;;
37495;SDS011;23346;52.088;4.746;2022-08-04T15:39:11;4.22;;;0.85;;
37495;SDS011;23346;52.088;4.746;2022-08-04T15:41:49;5.70;;;1.00;;
37495;SDS011;23346;52.088;4.746;2022-08-04T15:49:28;2.53;;;1.08;;
37495;SDS011;23346;52.088;4.746;2022-08-04T15:51:58;4.15;;;0.70;;
37495;SDS011;23346;52.088;4.746;2022-08-04T15:54:24;3.25;;;1.38;;
37495;SDS011;23346;52.088;4.746;2022-08-04T15:56:50;3.97;;;0.80;;
37495;SDS011;23346;52.088;4.746;2022-08-04T15:59:53;2.80;;;0.93;;
37495;SDS011;23346;52.088;4.746;2022-08-04T16:07:57;5.47;;;0.90;;
37495;SDS011;23346;52.088;4.746;2022-08-04T16:17:59;4.20;;;1.17;;
37495;SDS011;23346;52.088;4.746;2022-08-04T16:20:25;6.20;;;0.93;;
37495;SDS011;23346;52.088;4.746;2022-08-04T16:22:52;5.07;;;0.90;;
37495;SDS011;23346;52.088;4.746;2022-08-04T16:25:40;2.85;;;0.93;;
37495;SDS011;23346;52.088;4.746;2022-08-04T16:28:07;4.60;;;0.93;;
37495;SDS011;23346;52.088;4.746;2022-08-04T16:30:38;7.78;;;0.90;;
37495;SDS011;23346;52.088;4.746;2022-08-04T16:33:07;2.13;;;0.70;;
37495;SDS011;23346;52.088;4.746;2022-08-04T16:35:33;2.95;;;0.77;;
37495;SDS011;23346;52.088;4.746;2022-08-04T16:38:14;3.38;;;1.00;;
37495;SDS011;23346;52.088;4.746;2022-08-04T16:40:41;3.50;;;0.98;;
37495;SDS011;23346;52.088;4.746;2022-08-04T16:43:09;3.60;;;0.85;;
37495;SDS011;23346;52.088;4.746;2022-08-04T16:45:38;2.30;;;0.90;;
37495;SDS011;23346;52.088;4.746;2022-08-04T16:48:05;3.33;;;0.82;;
37495;SDS011;23346;52.088;4.746;2022-08-04T16:50:32;3.67;;;0.80;;
37495;SDS011;23346;52.088;4.746;2022-08-04T16:52:59;4.28;;;0.90;;
37495;SDS011;23346;52.088;4.746;2022-08-04T16:55:26;6.60;;;1.00;;
37495;SDS011;23346;52.088;4.746;2022-08-04T16:57:53;3.97;;;1.08;;
37495;SDS011;23346;52.088;4.746;2022-08-04T17:00:30;6.65;;;1.02;;
37495;SDS011;23346;52.088;4.746;2022-08-04T17:02:56;3.00;;;0.77;;
37495;SDS011;23346;52.088;4.746;2022-08-04T17:05:23;3.47;;;0.95;;
37495;SDS011;23346;52.088;4.746;2022-08-04T17:07:53;4.10;;;1.08;;
37495;SDS011;23346;52.088;4.746;2022-08-04T17:10:41;3.50;;;1.05;;
37495;SDS011;23346;52.088;4.746;2022-08-04T17:13:22;3.30;;;1.15;;
37495;SDS011;23346;52.088;4.746;2022-08-04T17:15:50;4.20;;;1.02;;
37495;SDS011;23346;52.088;4.746;2022-08-04T17:18:17;3.40;;;1.00;;
37495;SDS011;23346;52.088;4.746;2022-08-04T17:20:43;4.82;;;1.05;;
37495;SDS011;23346;52.088;4.746;2022-08-04T17:23:22;2.03;;;0.90;;
37495;SDS011;23346;52.088;4.746;2022-08-04T17:25:53;1.98;;;0.80;;
37495;SDS011;23346;52.088;4.746;2022-08-04T17:28:19;2.35;;;0.80;;
37495;SDS011;23346;52.088;4.746;2022-08-04T17:30:46;5.05;;;1.25;;
37495;SDS011;23346;52.088;4.746;2022-08-04T17:33:12;4.00;;;0.90;;
37495;SDS011;23346;52.088;4.746;2022-08-04T17:35:39;5.55;;;1.02;;
37495;SDS011;23346;52.088;4.746;2022-08-04T17:38:05;4.20;;;1.20;;
37495;SDS011;23346;52.088;4.746;2022-08-04T17:40:31;5.30;;;1.10;;
37495;SDS011;23346;52.088;4.746;2022-08-04T17:43:04;4.82;;;1.48;;
37495;SDS011;23346;52.088;4.746;2022-08-04T17:45:30;6.57;;;1.40;;
37495;SDS011;23346;52.088;4.746;2022-08-04T17:47:56;6.80;;;1.52;;
37495;SDS011;23346;52.088;4.746;2022-08-04T17:50:25;4.03;;;1.45;;
37495;SDS011;23346;52.088;4.746;2022-08-04T17:53:02;5.10;;;1.25;;
37495;SDS011;23346;52.088;4.746;2022-08-04T17:58:14;6.22;;;1.50;;
37495;SDS011;23346;52.088;4.746;2022-08-04T18:00:40;5.55;;;1.45;;
37495;SDS011;23346;52.088;4.746;2022-08-04T18:03:06;15.75;;;1.80;;
37495;SDS011;23346;52.088;4.746;2022-08-04T18:05:32;7.05;;;1.27;;
37495;SDS011;23346;52.088;4.746;2022-08-04T18:08:06;3.00;;;1.20;;
37495;SDS011;23346;52.088;4.746;2022-08-04T18:10:40;3.47;;;1.10;;
37495;SDS011;23346;52.088;4.746;2022-08-04T18:13:06;6.97;;;1.20;;
37495;SDS011;23346;52.088;4.746;2022-08-04T18:15:33;2.72;;;1.15;;
37495;SDS011;23346;52.088;4.746;2022-08-04T18:18:13;5.70;;;1.20;;
37495;SDS011;23346;52.088;4.746;2022-08-04T18:20:39;5.10;;;1.30;;
37495;SDS011;23346;52.088;4.746;2022-08-04T18:23:07;9.60;;;1.63;;
37495;SDS011;23346;52.088;4.746;2022-08-04T18:25:34;4.72;;;1.55;;
37495;SDS011;23346;52.088;4.746;2022-08-04T18:28:00;6.70;;;1.52;;
37495;SDS011;23346;52.088;4.746;2022-08-04T18:30:29;8.65;;;1.90;;
37495;SDS011;23346;52.088;4.746;2022-08-04T18:32:55;8.40;;;2.40;;
37495;SDS011;23346;52.088;4.746;2022-08-04T18:35:21;6.35;;;1.75;;
37495;SDS011;23346;52.088;4.746;2022-08-04T18:37:47;6.38;;;2.33;;
37495;SDS011;23346;52.088;4.746;2022-08-04T18:40:15;7.30;;;2.17;;
37495;SDS011;23346;52.088;4.746;2022-08-04T18:42:41;8.60;;;2.25;;
37495;SDS011;23346;52.088;4.746;2022-08-04T18:45:07;10.07;;;2.20;;
37495;SDS011;23346;52.088;4.746;2022-08-04T18:47:34;6.85;;;2.08;;
37495;SDS011;23346;52.088;4.746;2022-08-04T18:50:00;6.55;;;2.15;;
37495;SDS011;23346;52.088;4.746;2022-08-04T18:52:26;4.25;;;1.98;;
37495;SDS011;23346;52.088;4.746;2022-08-04T18:54:52;12.10;;;2.05;;
37495;SDS011;23346;52.088;4.746;2022-08-04T18:57:19;6.65;;;2.30;;